UPS1366 KBHM-KPNS
Flight info
| Callsign | UPS1366 |
|---|---|
| Flight time | 0h 33m |
| Altitude | 25000 |
| Route | GUMMP PENSI |
| Aircraft | B748/H-SDE3FGHIM1M2RWXY/LB1 |
Departure
| Time | 2026-04-23 03:25 |
|---|---|
| Airport | Birmingham-Shuttlesworth International Airport (KBHM) |
Arrival
| Time | 2026-04-23 03:58 |
|---|---|
| Airport | Pensacola International Airport (KPNS) |
| Time | Latitude | Longitude | Altitude | Speed | Heading |
|---|---|---|---|---|---|
| 2026-04-23 03:05 | 33.55404 | -86.76747 | 626 ft | 0 kts | 181° |
| 2026-04-23 03:10 | 33.55418 | -86.76746 | 635 ft | 2 kts | 205° |
| 2026-04-23 03:10 | 33.55431 | -86.76735 | 631 ft | 2 kts | 233° |
| 2026-04-23 03:11 | 33.55440 | -86.76718 | 638 ft | 2 kts | 252° |
| 2026-04-23 03:11 | 33.55443 | -86.76704 | 638 ft | 0 kts | 265° |
| 2026-04-23 03:15 | 33.55443 | -86.76706 | 638 ft | 1 kts | 265° |
| 2026-04-23 03:15 | 33.55439 | -86.76745 | 634 ft | 9 kts | 264° |
| 2026-04-23 03:16 | 33.55440 | -86.76785 | 627 ft | 2 kts | 293° |
| 2026-04-23 03:16 | 33.55465 | -86.76805 | 630 ft | 8 kts | 340° |
| 2026-04-23 03:16 | 33.55609 | -86.76721 | 634 ft | 13 kts | 42° |
| 2026-04-23 03:17 | 33.55665 | -86.76635 | 639 ft | 14 kts | 54° |
| 2026-04-23 03:17 | 33.55728 | -86.76528 | 637 ft | 18 kts | 55° |
| 2026-04-23 03:17 | 33.55805 | -86.76395 | 640 ft | 21 kts | 55° |
| 2026-04-23 03:17 | 33.55889 | -86.76246 | 638 ft | 23 kts | 56° |
| 2026-04-23 03:18 | 33.55979 | -86.76086 | 643 ft | 23 kts | 55° |
| 2026-04-23 03:18 | 33.56069 | -86.75933 | 647 ft | 22 kts | 55° |
| 2026-04-23 03:18 | 33.56160 | -86.75775 | 652 ft | 23 kts | 55° |
| 2026-04-23 03:18 | 33.56251 | -86.75623 | 653 ft | 23 kts | 54° |
| 2026-04-23 03:19 | 33.56342 | -86.75463 | 654 ft | 23 kts | 56° |
| 2026-04-23 03:19 | 33.56435 | -86.75304 | 651 ft | 24 kts | 54° |
| 2026-04-23 03:19 | 33.56529 | -86.75139 | 653 ft | 23 kts | 56° |
| 2026-04-23 03:19 | 33.56599 | -86.74970 | 653 ft | 21 kts | 79° |
| 2026-04-23 03:20 | 33.56636 | -86.74808 | 660 ft | 19 kts | 65° |
| 2026-04-23 03:20 | 33.56704 | -86.74677 | 656 ft | 20 kts | 56° |
| 2026-04-23 03:20 | 33.56794 | -86.74522 | 661 ft | 24 kts | 55° |
| 2026-04-23 03:20 | 33.56894 | -86.74349 | 657 ft | 26 kts | 55° |
| 2026-04-23 03:21 | 33.56995 | -86.74177 | 654 ft | 25 kts | 55° |
| 2026-04-23 03:21 | 33.57095 | -86.74001 | 658 ft | 25 kts | 56° |
| 2026-04-23 03:21 | 33.57183 | -86.73845 | 658 ft | 15 kts | 44° |
| 2026-04-23 03:21 | 33.57230 | -86.73834 | 662 ft | 4 kts | 347° |
| 2026-04-23 03:22 | 33.57247 | -86.73845 | 656 ft | 0 kts | 328° |
| 2026-04-23 03:22 | 33.57249 | -86.73846 | 656 ft | 2 kts | 328° |
| 2026-04-23 03:23 | 33.57294 | -86.73881 | 658 ft | 13 kts | 328° |
| 2026-04-23 03:23 | 33.57323 | -86.73930 | 659 ft | 7 kts | 282° |
| 2026-04-23 03:23 | 33.57315 | -86.73974 | 659 ft | 3 kts | 237° |
| 2026-04-23 03:23 | 33.57310 | -86.73982 | 659 ft | 0 kts | 235° |
| 2026-04-23 03:24 | 33.57125 | -86.74302 | 661 ft | 89 kts | 235° |
| 2026-04-23 03:24 | 33.56641 | -86.75136 | 658 ft | 154 kts | 235° |
| 2026-04-23 03:25 | 33.55952 | -86.76312 | 934 ft | 181 kts | 234° |
| 2026-04-23 03:25 | 33.55192 | -86.77569 | 1481 ft | 198 kts | 234° |
| 2026-04-23 03:25 | 33.54299 | -86.79067 | 1653 ft | 239 kts | 235° |
| 2026-04-23 03:25 | 33.53331 | -86.80693 | 2793 ft | 240 kts | 235° |
| 2026-04-23 03:26 | 33.52318 | -86.82326 | 4021 ft | 248 kts | 225° |
| 2026-04-23 03:26 | 33.50836 | -86.83368 | 5220 ft | 253 kts | 194° |
| 2026-04-23 03:26 | 33.49070 | -86.83383 | 6337 ft | 260 kts | 165° |
| 2026-04-23 03:26 | 33.47446 | -86.82416 | 7398 ft | 266 kts | 147° |
| 2026-04-23 03:27 | 33.45896 | -86.81158 | 8432 ft | 271 kts | 149° |
| 2026-04-23 03:27 | 33.44224 | -86.80093 | 9420 ft | 275 kts | 157° |
| 2026-04-23 03:27 | 33.42428 | -86.79251 | 10382 ft | 278 kts | 160° |
| 2026-04-23 03:27 | 33.40602 | -86.78411 | 11195 ft | 288 kts | 159° |
| 2026-04-23 03:28 | 33.38700 | -86.77451 | 11717 ft | 306 kts | 157° |
| 2026-04-23 03:28 | 33.36680 | -86.76407 | 12215 ft | 326 kts | 158° |
| 2026-04-23 03:28 | 33.34556 | -86.75336 | 12686 ft | 346 kts | 158° |
| 2026-04-23 03:28 | 33.32278 | -86.74204 | 13331 ft | 360 kts | 158° |
| 2026-04-23 03:29 | 33.29946 | -86.73038 | 14237 ft | 367 kts | 158° |
| 2026-04-23 03:29 | 33.27570 | -86.71843 | 15129 ft | 372 kts | 158° |
| 2026-04-23 03:29 | 33.25161 | -86.70634 | 16045 ft | 378 kts | 158° |
| 2026-04-23 03:29 | 33.22722 | -86.69414 | 16931 ft | 383 kts | 158° |
| 2026-04-23 03:30 | 33.20252 | -86.68180 | 17804 ft | 388 kts | 158° |
| 2026-04-23 03:30 | 33.17745 | -86.66926 | 18659 ft | 393 kts | 158° |
| 2026-04-23 03:30 | 33.15207 | -86.65657 | 19541 ft | 397 kts | 158° |
| 2026-04-23 03:30 | 33.12645 | -86.64378 | 20407 ft | 400 kts | 158° |
| 2026-04-23 03:31 | 33.10094 | -86.63121 | 21196 ft | 403 kts | 161° |
| 2026-04-23 03:31 | 33.07356 | -86.62381 | 21890 ft | 408 kts | 176° |
| 2026-04-23 03:31 | 33.04492 | -86.62541 | 22426 ft | 416 kts | 191° |
| 2026-04-23 03:31 | 33.01643 | -86.63340 | 22943 ft | 425 kts | 196° |
| 2026-04-23 03:32 | 32.98772 | -86.64368 | 23261 ft | 438 kts | 198° |
| 2026-04-23 03:32 | 32.95798 | -86.65413 | 23537 ft | 453 kts | 195° |
| 2026-04-23 03:32 | 32.92682 | -86.66277 | 23816 ft | 466 kts | 192° |
| 2026-04-23 03:32 | 32.89466 | -86.67119 | 24093 ft | 478 kts | 194° |
| 2026-04-23 03:33 | 32.86198 | -86.68130 | 24346 ft | 490 kts | 195° |
| 2026-04-23 03:33 | 32.82855 | -86.69140 | 24486 ft | 500 kts | 194° |
| 2026-04-23 03:33 | 32.79444 | -86.70109 | 24625 ft | 504 kts | 194° |
| 2026-04-23 03:33 | 32.76015 | -86.71089 | 24773 ft | 507 kts | 194° |
| 2026-04-23 03:34 | 32.73748 | -86.71757 | 24848 ft | 508 kts | 194° |
| 2026-04-23 03:34 | 32.69208 | -86.73107 | 24999 ft | 508 kts | 194° |
| 2026-04-23 03:34 | 32.65784 | -86.74102 | 24999 ft | 507 kts | 194° |
| 2026-04-23 03:34 | 32.63472 | -86.74769 | 24995 ft | 506 kts | 194° |
| 2026-04-23 03:35 | 32.58949 | -86.76085 | 24993 ft | 504 kts | 194° |
| 2026-04-23 03:35 | 32.55539 | -86.77084 | 24998 ft | 505 kts | 194° |
| 2026-04-23 03:35 | 32.53232 | -86.77758 | 24995 ft | 505 kts | 194° |
| 2026-04-23 03:35 | 32.49841 | -86.78740 | 24993 ft | 505 kts | 194° |
| 2026-04-23 03:36 | 32.46424 | -86.79730 | 24994 ft | 505 kts | 194° |
| 2026-04-23 03:36 | 32.43002 | -86.80726 | 24997 ft | 505 kts | 194° |
| 2026-04-23 03:36 | 32.39588 | -86.81719 | 24992 ft | 504 kts | 194° |
| 2026-04-23 03:36 | 32.36169 | -86.82709 | 24997 ft | 504 kts | 194° |
| 2026-04-23 03:37 | 32.32765 | -86.83694 | 24997 ft | 504 kts | 194° |
| 2026-04-23 03:37 | 32.29390 | -86.84670 | 24993 ft | 504 kts | 194° |
| 2026-04-23 03:37 | 32.25979 | -86.85658 | 24990 ft | 505 kts | 194° |
| 2026-04-23 03:37 | 32.22564 | -86.86645 | 24999 ft | 505 kts | 194° |
| 2026-04-23 03:38 | 32.19141 | -86.87633 | 24995 ft | 505 kts | 194° |
| 2026-04-23 03:38 | 32.15726 | -86.88619 | 24992 ft | 505 kts | 194° |
| 2026-04-23 03:38 | 32.12315 | -86.89603 | 24996 ft | 505 kts | 194° |
| 2026-04-23 03:38 | 32.08899 | -86.90587 | 24994 ft | 505 kts | 194° |
| 2026-04-23 03:39 | 32.05485 | -86.91570 | 24996 ft | 505 kts | 194° |
| 2026-04-23 03:39 | 32.02072 | -86.92552 | 24994 ft | 505 kts | 194° |
| 2026-04-23 03:39 | 31.98657 | -86.93533 | 24995 ft | 504 kts | 194° |
| 2026-04-23 03:39 | 31.95247 | -86.94512 | 24997 ft | 505 kts | 194° |
| 2026-04-23 03:40 | 31.91899 | -86.95473 | 24990 ft | 483 kts | 194° |
| 2026-04-23 03:40 | 31.88712 | -86.96387 | 24989 ft | 459 kts | 194° |
| 2026-04-23 03:40 | 31.85676 | -86.97257 | 24986 ft | 438 kts | 194° |
| 2026-04-23 03:40 | 31.82771 | -86.98089 | 24985 ft | 425 kts | 194° |
| 2026-04-23 03:41 | 31.79918 | -86.98907 | 24989 ft | 428 kts | 194° |
| 2026-04-23 03:41 | 31.77030 | -86.99733 | 24995 ft | 427 kts | 194° |
| 2026-04-23 03:41 | 31.74131 | -87.00561 | 24992 ft | 428 kts | 194° |
| 2026-04-23 03:41 | 31.71240 | -87.01387 | 24989 ft | 428 kts | 194° |
| 2026-04-23 03:42 | 31.68336 | -87.02216 | 24717 ft | 430 kts | 194° |
| 2026-04-23 03:42 | 31.65410 | -87.03052 | 24040 ft | 432 kts | 194° |
| 2026-04-23 03:42 | 31.62494 | -87.03883 | 23394 ft | 430 kts | 194° |
| 2026-04-23 03:42 | 31.59592 | -87.04709 | 22739 ft | 427 kts | 194° |
| 2026-04-23 03:43 | 31.56706 | -87.05531 | 22101 ft | 424 kts | 194° |
| 2026-04-23 03:43 | 31.53888 | -87.06333 | 21469 ft | 420 kts | 194° |
| 2026-04-23 03:43 | 31.51053 | -87.07140 | 20838 ft | 417 kts | 194° |
| 2026-04-23 03:43 | 31.48244 | -87.07938 | 20207 ft | 414 kts | 194° |
| 2026-04-23 03:44 | 31.45457 | -87.08730 | 19575 ft | 410 kts | 194° |
| 2026-04-23 03:44 | 31.42692 | -87.09515 | 18945 ft | 407 kts | 194° |
| 2026-04-23 03:44 | 31.39945 | -87.10294 | 18313 ft | 404 kts | 194° |
| 2026-04-23 03:44 | 31.37275 | -87.11051 | 17624 ft | 381 kts | 194° |
| 2026-04-23 03:45 | 31.34755 | -87.11764 | 16942 ft | 366 kts | 194° |
| 2026-04-23 03:45 | 31.32274 | -87.12468 | 16368 ft | 368 kts | 194° |
| 2026-04-23 03:45 | 31.29782 | -87.13174 | 15769 ft | 367 kts | 194° |
| 2026-04-23 03:45 | 31.27358 | -87.13859 | 15178 ft | 358 kts | 194° |
| 2026-04-23 03:46 | 31.24952 | -87.14539 | 14612 ft | 354 kts | 194° |
| 2026-04-23 03:46 | 31.22543 | -87.15221 | 14028 ft | 357 kts | 194° |
| 2026-04-23 03:46 | 31.20123 | -87.15904 | 13432 ft | 358 kts | 194° |
| 2026-04-23 03:46 | 31.17695 | -87.16590 | 12839 ft | 358 kts | 194° |
| 2026-04-23 03:47 | 31.15272 | -87.17273 | 12229 ft | 358 kts | 194° |
| 2026-04-23 03:47 | 31.12893 | -87.17944 | 11616 ft | 344 kts | 194° |
| 2026-04-23 03:47 | 31.10615 | -87.18586 | 11036 ft | 327 kts | 194° |
| 2026-04-23 03:47 | 31.08488 | -87.19185 | 10672 ft | 302 kts | 194° |
| 2026-04-23 03:48 | 31.06533 | -87.19735 | 10555 ft | 279 kts | 194° |
| 2026-04-23 03:48 | 31.04682 | -87.20257 | 10449 ft | 267 kts | 194° |
| 2026-04-23 03:48 | 31.02899 | -87.20759 | 10348 ft | 263 kts | 194° |
| 2026-04-23 03:48 | 31.01102 | -87.21265 | 10268 ft | 276 kts | 194° |
| 2026-04-23 03:49 | 30.99232 | -87.21791 | 10179 ft | 276 kts | 194° |
| 2026-04-23 03:49 | 30.97364 | -87.22316 | 10086 ft | 274 kts | 194° |
| 2026-04-23 03:49 | 30.95521 | -87.22833 | 9744 ft | 275 kts | 194° |
| 2026-04-23 03:49 | 30.93651 | -87.23359 | 9323 ft | 279 kts | 194° |
| 2026-04-23 03:50 | 30.91742 | -87.23895 | 8887 ft | 284 kts | 194° |
| 2026-04-23 03:50 | 30.89798 | -87.24441 | 8467 ft | 290 kts | 194° |
| 2026-04-23 03:50 | 30.87821 | -87.24995 | 8030 ft | 294 kts | 194° |
| 2026-04-23 03:50 | 30.85814 | -87.25558 | 7597 ft | 298 kts | 194° |
| 2026-04-23 03:51 | 30.83817 | -87.26117 | 7154 ft | 301 kts | 194° |
| 2026-04-23 03:51 | 30.81773 | -87.26690 | 6716 ft | 303 kts | 194° |
| 2026-04-23 03:51 | 30.79771 | -87.27197 | 6194 ft | 286 kts | 185° |
| 2026-04-23 03:51 | 30.77840 | -87.26991 | 5655 ft | 274 kts | 168° |
| 2026-04-23 03:52 | 30.76011 | -87.26511 | 5127 ft | 265 kts | 167° |
| 2026-04-23 03:52 | 30.74237 | -87.26011 | 4593 ft | 259 kts | 167° |
| 2026-04-23 03:52 | 30.72523 | -87.25544 | 4215 ft | 248 kts | 168° |
| 2026-04-23 03:52 | 30.70878 | -87.25105 | 3941 ft | 235 kts | 168° |
| 2026-04-23 03:53 | 30.69287 | -87.24679 | 3472 ft | 233 kts | 168° |
| 2026-04-23 03:53 | 30.67765 | -87.24270 | 3026 ft | 212 kts | 168° |
| 2026-04-23 03:53 | 30.66413 | -87.23905 | 2556 ft | 188 kts | 168° |
| 2026-04-23 03:53 | 30.65194 | -87.23585 | 2090 ft | 172 kts | 168° |
| 2026-04-23 03:54 | 30.64077 | -87.23286 | 1647 ft | 161 kts | 168° |
| 2026-04-23 03:54 | 30.63056 | -87.23011 | 1517 ft | 143 kts | 168° |
| 2026-04-23 03:54 | 30.62072 | -87.22746 | 1526 ft | 143 kts | 168° |
| 2026-04-23 03:54 | 30.61092 | -87.22485 | 1521 ft | 144 kts | 168° |
| 2026-04-23 03:55 | 30.60112 | -87.22223 | 1524 ft | 144 kts | 168° |
| 2026-04-23 03:55 | 30.59131 | -87.21959 | 1522 ft | 145 kts | 168° |
| 2026-04-23 03:55 | 30.58153 | -87.21697 | 1528 ft | 144 kts | 168° |
| 2026-04-23 03:55 | 30.57174 | -87.21434 | 1528 ft | 144 kts | 168° |
| 2026-04-23 03:56 | 30.56194 | -87.21175 | 1528 ft | 144 kts | 169° |
| 2026-04-23 03:56 | 30.55215 | -87.20913 | 1523 ft | 145 kts | 168° |
| 2026-04-23 03:56 | 30.54231 | -87.20650 | 1329 ft | 143 kts | 168° |
| 2026-04-23 03:56 | 30.53254 | -87.20387 | 1141 ft | 144 kts | 168° |
| 2026-04-23 03:57 | 30.52278 | -87.20127 | 942 ft | 143 kts | 168° |
| 2026-04-23 03:57 | 30.51311 | -87.19871 | 752 ft | 142 kts | 169° |
| 2026-04-23 03:57 | 30.50344 | -87.19614 | 575 ft | 146 kts | 167° |
| 2026-04-23 03:57 | 30.49367 | -87.19334 | 362 ft | 146 kts | 166° |
| 2026-04-23 03:58 | 30.48391 | -87.19075 | 160 ft | 140 kts | 168° |
| 2026-04-23 03:58 | 30.47555 | -87.18861 | 120 ft | 91 kts | 167° |
| 2026-04-23 03:58 | 30.47149 | -87.18760 | 116 ft | 45 kts | 167° |
| 2026-04-23 03:58 | 30.46862 | -87.18687 | 118 ft | 41 kts | 167° |
| 2026-04-23 03:59 | 30.46613 | -87.18630 | 117 ft | 34 kts | 166° |
| 2026-04-23 03:59 | 30.46437 | -87.18590 | 115 ft | 15 kts | 206° |
| 2026-04-23 03:59 | 30.46413 | -87.18633 | 114 ft | 8 kts | 250° |
| 2026-04-23 03:59 | 30.46407 | -87.18675 | 116 ft | 5 kts | 273° |
| 2026-04-23 04:00 | 30.46409 | -87.18683 | 116 ft | 0 kts | 282° |
| 2026-04-23 04:00 | 30.46419 | -87.18711 | 115 ft | 5 kts | 308° |
| 2026-04-23 04:00 | 30.46510 | -87.18750 | 117 ft | 21 kts | 345° |
| 2026-04-23 04:01 | 30.46671 | -87.18791 | 117 ft | 26 kts | 348° |
| 2026-04-23 04:01 | 30.46860 | -87.18836 | 115 ft | 28 kts | 348° |
| 2026-04-23 04:01 | 30.47054 | -87.18884 | 114 ft | 29 kts | 348° |
| 2026-04-23 04:01 | 30.47250 | -87.18935 | 115 ft | 29 kts | 346° |
| 2026-04-23 04:02 | 30.47448 | -87.18992 | 116 ft | 29 kts | 346° |
| 2026-04-23 04:02 | 30.47632 | -87.19049 | 121 ft | 25 kts | 340° |
| 2026-04-23 04:02 | 30.47729 | -87.19183 | 126 ft | 19 kts | 312° |
| 2026-04-23 04:02 | 30.47787 | -87.19229 | 124 ft | 0 kts | 326° |